Time;durP1;ratioP1;P1;durP2;ratioP2;P2;SDS_P1;SDS_P2;PMS_P1;PMS_P2;Temp;Humidity;BMP_temperature;BMP_pressure;BME280_temperature;BME280_humidity;BME280_pressure;Samples;Min_cycle;Max_cycle;Signal;HPM_P1;HPM_P2
2023/04/07 00:01:55;;;;;;;3.53;2.90;;;;;;;;;;5023927;28;20037;-60
2023/04/07 00:04:20;;;;;;;4.22;3.22;;;;;;;;;;5024910;28;20775;-61
2023/04/07 00:06:46;;;;;;;4.22;3.17;;;;;;;;;;5025127;28;20030;-61
2023/04/07 00:09:11;;;;;;;4.93;3.33;;;;;;;;;;5024905;28;20040;-60
2023/04/07 00:11:36;;;;;;;4.07;3.27;;;;;;;;;;5025795;28;20264;-61
2023/04/07 00:14:02;;;;;;;3.60;3.10;;;;;;;;;;5024343;28;20861;-61
2023/04/07 00:16:27;;;;;;;4.30;3.53;;;;;;;;;;5024824;28;20276;-61
2023/04/07 00:18:52;;;;;;;4.60;3.70;;;;;;;;;;5021469;28;20139;-60
2023/04/07 00:21:17;;;;;;;4.47;3.57;;;;;;;;;;5025547;28;20322;-60
2023/04/07 00:23:43;;;;;;;3.70;3.13;;;;;;;;;;5025026;28;20281;-60
2023/04/07 00:26:09;;;;;;;4.15;3.33;;;;;;;;;;5023092;28;20676;-61
2023/04/07 00:28:34;;;;;;;4.10;3.50;;;;;;;;;;5027033;28;20042;-60
2023/04/07 00:31:00;;;;;;;3.83;3.38;;;;;;;;;;5030383;28;20033;-60
2023/04/07 00:33:25;;;;;;;3.53;3.22;;;;;;;;;;5030295;28;20500;-61
2023/04/07 00:35:50;;;;;;;4.00;3.05;;;;;;;;;;5026588;28;20403;-60
2023/04/07 00:38:15;;;;;;;3.67;3.03;;;;;;;;;;5027046;28;20033;-60
2023/04/07 00:40:41;;;;;;;3.95;3.35;;;;;;;;;;5024770;28;20021;-61
2023/04/07 00:43:06;;;;;;;4.27;3.53;;;;;;;;;;5008175;28;20080;-61
2023/04/07 00:45:31;;;;;;;3.90;3.03;;;;;;;;;;5024280;28;20296;-61
2023/04/07 00:47:57;;;;;;;4.45;3.67;;;;;;;;;;5024046;28;20272;-63
2023/04/07 00:50:22;;;;;;;3.55;3.10;;;;;;;;;;5024377;28;20037;-60
2023/04/07 00:52:47;;;;;;;4.77;3.50;;;;;;;;;;5024779;28;20508;-61
2023/04/07 00:55:13;;;;;;;3.77;3.30;;;;;;;;;;5023379;28;20668;-60
2023/04/07 00:57:38;;;;;;;4.03;3.25;;;;;;;;;;5024109;28;20348;-60
2023/04/07 01:00:05;;;;;;;3.95;3.40;;;;;;;;;;5025218;28;20413;-60
2023/04/07 01:02:49;;;;;;;4.28;3.53;;;;;;;;;;5024310;28;20037;-60
2023/04/07 01:05:33;;;;;;;4.25;3.38;;;;;;;;;;5023424;28;20751;-60
2023/04/07 01:08:08;;;;;;;4.15;3.38;;;;;;;;;;5025017;28;20514;-60
2023/04/07 01:10:37;;;;;;;4.63;3.50;;;;;;;;;;5025166;28;20144;-61
2023/04/07 01:13:08;;;;;;;3.78;3.28;;;;;;;;;;5024092;28;20025;-61
2023/04/07 01:15:33;;;;;;;3.42;2.97;;;;;;;;;;5022930;28;20128;-60
2023/04/07 01:17:59;;;;;;;4.30;3.45;;;;;;;;;;5040189;28;20113;-61
2023/04/07 01:20:25;;;;;;;3.92;3.35;;;;;;;;;;5006352;28;20120;-61
2023/04/07 01:22:54;;;;;;;4.03;3.40;;;;;;;;;;5023778;28;20113;-60
2023/04/07 01:25:38;;;;;;;4.57;3.40;;;;;;;;;;5022612;28;20037;-60
2023/04/07 01:28:04;;;;;;;4.00;3.50;;;;;;;;;;5023995;28;20044;-61
2023/04/07 01:30:30;;;;;;;4.05;3.40;;;;;;;;;;5020861;28;20033;-60
2023/04/07 01:32:56;;;;;;;4.22;3.25;;;;;;;;;;5021898;28;20599;-60
2023/04/07 01:35:21;;;;;;;3.78;3.28;;;;;;;;;;5044003;28;20032;-60
2023/04/07 01:37:47;;;;;;;3.50;3.00;;;;;;;;;;5043465;28;20037;-61
2023/04/07 01:40:13;;;;;;;4.70;3.33;;;;;;;;;;5043751;28;20041;-57
2023/04/07 01:42:38;;;;;;;4.30;3.08;;;;;;;;;;5042935;28;20044;-59
2023/04/07 01:45:03;;;;;;;4.30;3.53;;;;;;;;;;5041705;28;20037;-61
2023/04/07 01:47:29;;;;;;;4.05;3.10;;;;;;;;;;5035533;28;20333;-61
2023/04/07 01:49:58;;;;;;;3.28;2.97;;;;;;;;;;5031078;28;20049;-60
2023/04/07 01:52:24;;;;;;;3.63;3.00;;;;;;;;;;5009403;28;20053;-59
2023/04/07 01:54:49;;;;;;;3.97;3.10;;;;;;;;;;5005448;28;20449;-60
2023/04/07 01:57:14;;;;;;;4.50;3.28;;;;;;;;;;5023253;28;20021;-61
2023/04/07 01:59:40;;;;;;;3.88;3.03;;;;;;;;;;5019208;28;20060;-60
2023/04/07 02:02:05;;;;;;;3.67;3.17;;;;;;;;;;5003466;28;20013;-60
2023/04/07 02:04:39;;;;;;;3.42;3.13;;;;;;;;;;5022245;28;20457;-60
2023/04/07 02:07:08;;;;;;;4.00;3.38;;;;;;;;;;5023601;28;20549;-61
2023/04/07 02:09:33;;;;;;;3.83;3.30;;;;;;;;;;5022538;28;20033;-61
2023/04/07 02:11:59;;;;;;;4.47;3.50;;;;;;;;;;5023713;28;20103;-62
2023/04/07 02:14:24;;;;;;;3.60;3.10;;;;;;;;;;5022539;28;20269;-61
2023/04/07 02:16:50;;;;;;;3.60;3.20;;;;;;;;;;5022913;28;20037;-60
2023/04/07 02:19:15;;;;;;;3.47;3.08;;;;;;;;;;5022615;28;20260;-60
2023/04/07 02:21:40;;;;;;;4.95;3.03;;;;;;;;;;5038966;28;20036;-61
2023/04/07 02:24:06;;;;;;;4.13;3.08;;;;;;;;;;5023323;28;20041;-61
2023/04/07 02:26:34;;;;;;;3.90;3.17;;;;;;;;;;5023426;28;20369;-61
2023/04/07 02:29:00;;;;;;;3.65;2.97;;;;;;;;;;5021562;28;20061;-59
2023/04/07 02:31:25;;;;;;;3.50;3.15;;;;;;;;;;5023015;28;20528;-60
2023/04/07 02:33:51;;;;;;;3.90;3.10;;;;;;;;;;5023650;28;20497;-59
2023/04/07 02:36:16;;;;;;;3.72;2.97;;;;;;;;;;5023693;28;20137;-60
2023/04/07 02:38:41;;;;;;;4.33;3.30;;;;;;;;;;5022334;28;20052;-60
2023/04/07 02:41:07;;;;;;;4.20;3.03;;;;;;;;;;5024293;28;20682;-59
2023/04/07 02:43:32;;;;;;;3.27;2.70;;;;;;;;;;5024180;28;20032;-60
2023/04/07 02:45:57;;;;;;;4.27;3.10;;;;;;;;;;5020495;28;20299;-61
2023/04/07 02:48:22;;;;;;;4.10;3.10;;;;;;;;;;5019668;28;20698;-61
2023/04/07 02:50:48;;;;;;;3.70;3.10;;;;;;;;;;5023757;28;20272;-61
2023/04/07 02:53:13;;;;;;;3.47;3.05;;;;;;;;;;5021566;28;20807;-61
2023/04/07 02:55:38;;;;;;;6.15;3.22;;;;;;;;;;5009382;28;20037;-59
2023/04/07 02:58:03;;;;;;;3.70;3.30;;;;;;;;;;5007415;28;20320;-60
2023/04/07 03:00:29;;;;;;;6.63;3.03;;;;;;;;;;4996483;28;20042;-61
2023/04/07 03:02:54;;;;;;;4.25;3.10;;;;;;;;;;5012144;28;20912;-60
2023/04/07 03:05:19;;;;;;;5.50;2.87;;;;;;;;;;5015592;28;21386;-60
2023/04/07 03:07:45;;;;;;;3.80;2.83;;;;;;;;;;5017194;28;20793;-60
2023/04/07 03:10:10;;;;;;;3.75;3.00;;;;;;;;;;5014595;28;20044;-60
2023/04/07 03:12:35;;;;;;;4.10;2.93;;;;;;;;;;5012435;28;20037;-58
2023/04/07 03:15:01;;;;;;;5.83;2.83;;;;;;;;;;5011751;28;20790;-60
2023/04/07 03:17:26;;;;;;;3.58;3.00;;;;;;;;;;5011043;28;20727;-60
2023/04/07 03:19:51;;;;;;;3.70;3.00;;;;;;;;;;5013599;28;20038;-60
2023/04/07 03:22:16;;;;;;;4.20;3.23;;;;;;;;;;5012338;28;20293;-60
2023/04/07 03:24:41;;;;;;;3.40;2.70;;;;;;;;;;5010528;28;20392;-60
2023/04/07 03:27:07;;;;;;;4.73;2.80;;;;;;;;;;5012188;28;20317;-60
2023/04/07 03:29:32;;;;;;;3.33;2.83;;;;;;;;;;5015455;28;20115;-60
2023/04/07 03:31:57;;;;;;;4.45;2.95;;;;;;;;;;5010447;28;20300;-61
2023/04/07 03:34:23;;;;;;;3.60;2.60;;;;;;;;;;5010748;28;20085;-59
2023/04/07 03:36:48;;;;;;;3.73;2.80;;;;;;;;;;5014491;28;20284;-59
2023/04/07 03:39:13;;;;;;;3.50;2.60;;;;;;;;;;5011290;28;20292;-59
2023/04/07 03:41:38;;;;;;;3.90;2.90;;;;;;;;;;5011543;28;20886;-60
2023/04/07 03:44:04;;;;;;;3.60;2.75;;;;;;;;;;5014534;28;20367;-60
2023/04/07 03:46:29;;;;;;;4.15;2.90;;;;;;;;;;5014147;28;20029;-60
2023/04/07 03:48:55;;;;;;;3.70;2.47;;;;;;;;;;5011130;28;20045;-60
2023/04/07 03:51:20;;;;;;;2.92;2.50;;;;;;;;;;5011543;28;20559;-60
2023/04/07 03:53:46;;;;;;;3.23;2.50;;;;;;;;;;5011403;28;20493;-59
2023/04/07 03:56:11;;;;;;;4.50;3.08;;;;;;;;;;5010524;28;20644;-60
2023/04/07 03:58:36;;;;;;;3.53;2.60;;;;;;;;;;5013607;28;20655;-60
2023/04/07 04:01:01;;;;;;;3.50;2.88;;;;;;;;;;5010822;28;20038;-59
2023/04/07 04:03:27;;;;;;;2.88;2.35;;;;;;;;;;5011182;28;20044;-60
2023/04/07 04:05:52;;;;;;;3.37;2.70;;;;;;;;;;5010517;28;20046;-59
2023/04/07 04:08:17;;;;;;;3.58;2.30;;;;;;;;;;5011752;28;20363;-60
2023/04/07 04:10:43;;;;;;;3.13;2.80;;;;;;;;;;5009314;28;20388;-59
2023/04/07 04:13:08;;;;;;;3.40;2.13;;;;;;;;;;5010939;28;20046;-59
2023/04/07 04:15:33;;;;;;;2.85;2.25;;;;;;;;;;5000220;28;20792;-61
2023/04/07 04:17:59;;;;;;;4.43;3.00;;;;;;;;;;5013521;28;20038;-60
2023/04/07 04:20:24;;;;;;;3.20;2.47;;;;;;;;;;5010874;28;20493;-60
2023/04/07 04:22:49;;;;;;;3.40;2.60;;;;;;;;;;5010587;28;20505;-59
2023/04/07 04:25:15;;;;;;;3.10;2.60;;;;;;;;;;5014144;28;20316;-60
2023/04/07 04:27:40;;;;;;;3.45;2.80;;;;;;;;;;4998840;28;20285;-60
2023/04/07 04:30:06;;;;;;;3.03;2.47;;;;;;;;;;5009043;28;20379;-60
2023/04/07 04:32:32;;;;;;;4.10;2.45;;;;;;;;;;5009455;28;20417;-59
2023/04/07 04:34:57;;;;;;;3.33;2.50;;;;;;;;;;5010302;28;20039;-60
2023/04/07 04:37:22;;;;;;;3.23;2.47;;;;;;;;;;5010658;28;20042;-60
2023/04/07 04:39:47;;;;;;;4.40;2.60;;;;;;;;;;5011944;28;20463;-59
2023/04/07 04:42:13;;;;;;;2.90;2.53;;;;;;;;;;5008599;28;20141;-60
2023/04/07 04:44:38;;;;;;;3.37;2.67;;;;;;;;;;5008992;28;21939;-59
2023/04/07 04:47:03;;;;;;;3.57;2.20;;;;;;;;;;5011006;28;20328;-60
2023/04/07 04:49:28;;;;;;;3.67;2.83;;;;;;;;;;5013795;28;20292;-61
2023/04/07 04:51:54;;;;;;;3.53;2.60;;;;;;;;;;5010957;28;20140;-59
2023/04/07 04:54:19;;;;;;;3.95;2.45;;;;;;;;;;5008762;28;20211;-60
2023/04/07 04:56:44;;;;;;;4.38;2.45;;;;;;;;;;5010353;28;20115;-60
2023/04/07 04:59:09;;;;;;;3.15;2.55;;;;;;;;;;5010269;28;20490;-59
2023/04/07 05:01:35;;;;;;;4.03;2.37;;;;;;;;;;5008977;28;20056;-61
2023/04/07 05:04:00;;;;;;;3.38;2.78;;;;;;;;;;5012924;28;20583;-59
2023/04/07 05:06:26;;;;;;;3.50;2.77;;;;;;;;;;5007614;28;20053;-60
2023/04/07 05:08:51;;;;;;;3.58;2.50;;;;;;;;;;5010402;28;20025;-60
2023/04/07 05:11:17;;;;;;;3.33;2.70;;;;;;;;;;5010618;28;20044;-60
2023/04/07 05:13:42;;;;;;;3.42;2.65;;;;;;;;;;5009793;28;20277;-60
2023/04/07 05:16:07;;;;;;;3.70;2.63;;;;;;;;;;5009031;28;20042;-60
2023/04/07 05:18:32;;;;;;;3.17;2.35;;;;;;;;;;5009324;28;20417;-60
2023/04/07 05:21:01;;;;;;;2.85;2.35;;;;;;;;;;5008358;28;20068;-60
2023/04/07 05:23:26;;;;;;;3.08;2.60;;;;;;;;;;5038743;22;20123;-57
2023/04/07 05:25:51;;;;;;;3.03;2.38;;;;;;;;;;5032735;28;20563;-59
2023/04/07 05:28:17;;;;;;;3.57;2.10;;;;;;;;;;5051822;28;20036;-64
2023/04/07 05:30:42;;;;;;;2.92;2.40;;;;;;;;;;5029198;28;20305;-61
2023/04/07 05:33:07;;;;;;;2.85;2.40;;;;;;;;;;5029909;28;20167;-59
2023/04/07 05:35:32;;;;;;;3.07;2.50;;;;;;;;;;5058913;28;20041;-65
2023/04/07 05:37:58;;;;;;;2.97;2.33;;;;;;;;;;5053391;28;21657;-66
2023/04/07 05:40:25;;;;;;;3.05;2.38;;;;;;;;;;5054573;28;20339;-66
2023/04/07 05:42:50;;;;;;;2.45;2.17;;;;;;;;;;5078279;22;20037;-76
2023/04/07 05:45:15;;;;;;;3.47;2.50;;;;;;;;;;5055608;28;20079;-78
2023/04/07 05:47:41;;;;;;;5.70;2.50;;;;;;;;;;5042636;28;20071;-75
2023/04/07 05:50:06;;;;;;;3.47;2.60;;;;;;;;;;5058083;28;20037;-75
2023/04/07 05:52:31;;;;;;;3.22;2.70;;;;;;;;;;5046161;28;20647;-76
2023/04/07 05:54:56;;;;;;;3.20;2.40;;;;;;;;;;5064382;28;20043;-78
2023/04/07 05:57:22;;;;;;;3.30;2.60;;;;;;;;;;5064273;28;20028;-77
2023/04/07 05:59:47;;;;;;;3.28;2.70;;;;;;;;;;5059773;28;20275;-77
2023/04/07 06:02:12;;;;;;;3.57;2.80;;;;;;;;;;5059536;28;20033;-75
2023/04/07 06:04:38;;;;;;;3.33;2.43;;;;;;;;;;5057013;28;20033;-79
2023/04/07 06:07:03;;;;;;;4.13;3.10;;;;;;;;;;5066933;28;20313;-77
2023/04/07 06:09:28;;;;;;;4.23;2.90;;;;;;;;;;5061476;28;20419;-76
2023/04/07 06:11:54;;;;;;;4.13;2.77;;;;;;;;;;5065000;28;20286;-76
2023/04/07 06:14:19;;;;;;;3.93;2.80;;;;;;;;;;5062525;28;20123;-76
2023/04/07 06:16:44;;;;;;;3.05;2.60;;;;;;;;;;5067865;28;20108;-77
2023/04/07 06:19:10;;;;;;;3.67;2.97;;;;;;;;;;5072046;28;20029;-79
2023/04/07 06:21:35;;;;;;;4.00;2.50;;;;;;;;;;5065615;28;20287;-74
2023/04/07 06:24:00;;;;;;;4.63;2.50;;;;;;;;;;5062123;28;20032;-74
2023/04/07 06:26:26;;;;;;;3.63;2.80;;;;;;;;;;5063668;28;20071;-78
2023/04/07 06:28:51;;;;;;;3.50;2.60;;;;;;;;;;5063786;28;20518;-75
2023/04/07 06:31:17;;;;;;;4.70;3.07;;;;;;;;;;5067030;28;20039;-75
2023/04/07 06:33:42;;;;;;;3.38;2.67;;;;;;;;;;5057546;28;20036;-75
2023/04/07 06:36:08;;;;;;;4.03;2.55;;;;;;;;;;5070596;28;20039;-75
2023/04/07 06:38:33;;;;;;;4.23;2.70;;;;;;;;;;5064247;28;20554;-75
2023/04/07 06:40:58;;;;;;;4.03;3.00;;;;;;;;;;5053037;28;20967;-75
2023/04/07 06:43:23;;;;;;;3.20;2.50;;;;;;;;;;5066283;28;20334;-75
2023/04/07 06:45:48;;;;;;;3.38;2.58;;;;;;;;;;5069580;28;20071;-75
2023/04/07 06:48:14;;;;;;;2.87;2.33;;;;;;;;;;5068911;28;20032;-77
2023/04/07 06:50:39;;;;;;;3.67;2.92;;;;;;;;;;5052986;28;20559;-81
2023/04/07 06:53:04;;;;;;;3.83;2.75;;;;;;;;;;5050652;28;20061;-77
2023/04/07 06:55:30;;;;;;;3.83;2.70;;;;;;;;;;5069735;28;20045;-77
2023/04/07 06:57:55;;;;;;;3.75;2.47;;;;;;;;;;5069141;28;20110;-76
2023/04/07 07:00:21;;;;;;;3.90;2.80;;;;;;;;;;5062891;28;20033;-77
2023/04/07 07:02:47;;;;;;;4.15;3.00;;;;;;;;;;5054610;28;20040;-76
2023/04/07 07:05:12;;;;;;;3.70;2.72;;;;;;;;;;5069558;28;20037;-76
2023/04/07 07:07:37;;;;;;;4.07;3.00;;;;;;;;;;5070725;28;20024;-76
2023/04/07 07:10:03;;;;;;;4.47;2.85;;;;;;;;;;5068840;28;20318;-74
2023/04/07 07:12:28;;;;;;;3.25;2.80;;;;;;;;;;5068319;28;20405;-76
2023/04/07 07:14:53;;;;;;;4.65;3.00;;;;;;;;;;5077538;28;20081;-77
2023/04/07 07:17:19;;;;;;;4.13;3.00;;;;;;;;;;5062977;28;20106;-77
2023/04/07 07:19:44;;;;;;;3.40;2.53;;;;;;;;;;5057470;28;20278;-78
2023/04/07 07:22:09;;;;;;;3.92;2.83;;;;;;;;;;5070951;28;20282;-76
2023/04/07 07:24:35;;;;;;;3.40;2.57;;;;;;;;;;5061806;28;20108;-76
2023/04/07 07:27:01;;;;;;;4.22;2.63;;;;;;;;;;5062726;28;20279;-76
2023/04/07 07:29:26;;;;;;;3.75;2.55;;;;;;;;;;5054177;28;20614;-76
2023/04/07 07:31:51;;;;;;;3.75;2.70;;;;;;;;;;5048483;28;20056;-75
2023/04/07 07:34:17;;;;;;;4.20;2.72;;;;;;;;;;5052904;28;20502;-76
2023/04/07 07:36:42;;;;;;;4.37;2.83;;;;;;;;;;5068887;28;20041;-76
2023/04/07 07:39:07;;;;;;;3.85;2.60;;;;;;;;;;5069200;28;20029;-76
2023/04/07 07:41:32;;;;;;;3.00;2.40;;;;;;;;;;5066248;28;20071;-76
2023/04/07 07:43:58;;;;;;;4.63;3.00;;;;;;;;;;5046337;28;20029;-76
2023/04/07 07:46:24;;;;;;;4.83;2.67;;;;;;;;;;5049182;28;20355;-76
2023/04/07 07:48:50;;;;;;;3.88;2.80;;;;;;;;;;5061832;28;20653;-76
2023/04/07 07:51:17;;;;;;;4.43;2.60;;;;;;;;;;5066877;28;20062;-77
2023/04/07 07:53:42;;;;;;;3.65;2.45;;;;;;;;;;5059189;28;20047;-77
2023/04/07 07:56:07;;;;;;;4.00;2.85;;;;;;;;;;5070832;28;20033;-77
2023/04/07 07:58:32;;;;;;;4.27;3.03;;;;;;;;;;5071132;28;20028;-77
2023/04/07 08:00:58;;;;;;;4.30;2.97;;;;;;;;;;5061060;28;20045;-77
2023/04/07 08:03:23;;;;;;;3.92;2.75;;;;;;;;;;5048194;28;20082;-76
2023/04/07 08:05:49;;;;;;;3.65;2.60;;;;;;;;;;5072979;28;20040;-76
2023/04/07 08:08:14;;;;;;;3.92;2.83;;;;;;;;;;5074434;28;20116;-76
2023/04/07 08:10:39;;;;;;;3.40;2.90;;;;;;;;;;5065296;28;20041;-77
2023/04/07 08:13:05;;;;;;;3.70;2.83;;;;;;;;;;5066641;28;20532;-77
2023/04/07 08:15:30;;;;;;;3.72;2.80;;;;;;;;;;5055398;28;20290;-76
2023/04/07 08:17:55;;;;;;;3.03;2.60;;;;;;;;;;5049299;28;20032;-77
2023/04/07 08:20:21;;;;;;;4.93;2.83;;;;;;;;;;5071265;28;20028;-77
2023/04/07 08:22:47;;;;;;;3.55;2.60;;;;;;;;;;5055913;28;20094;-76
2023/04/07 08:25:12;;;;;;;3.60;2.70;;;;;;;;;;5072294;28;20040;-76
2023/04/07 08:27:37;;;;;;;3.33;2.80;;;;;;;;;;5060928;28;20029;-76
2023/04/07 08:30:04;;;;;;;3.35;2.67;;;;;;;;;;5065453;28;20554;-76
2023/04/07 08:32:49;;;;;;;3.97;2.60;;;;;;;;;;5072265;28;20507;-76
2023/04/07 08:35:14;;;;;;;3.85;2.80;;;;;;;;;;5068034;28;20028;-76
2023/04/07 08:37:41;;;;;;;3.17;2.40;;;;;;;;;;5052133;28;20067;-79
2023/04/07 08:40:06;;;;;;;3.95;2.80;;;;;;;;;;5066372;28;20056;-82
2023/04/07 08:42:32;;;;;;;3.28;2.42;;;;;;;;;;5068692;28;20568;-78
2023/04/07 08:45:00;;;;;;;4.32;2.58;;;;;;;;;;5072797;28;20032;-78
2023/04/07 08:47:28;;;;;;;5.68;3.25;;;;;;;;;;5072151;28;20032;-79
2023/04/07 08:49:54;;;;;;;4.03;2.75;;;;;;;;;;5072546;28;20032;-81
2023/04/07 08:52:22;;;;;;;3.72;2.55;;;;;;;;;;5054292;28;20520;-79
2023/04/07 08:54:48;;;;;;;3.63;2.50;;;;;;;;;;5050628;28;20060;-79
2023/04/07 08:57:13;;;;;;;4.18;2.50;;;;;;;;;;5074175;28;20047;-79
2023/04/07 08:59:42;;;;;;;3.33;2.45;;;;;;;;;;5057416;28;20710;-78
2023/04/07 09:02:07;;;;;;;23.30;7.10;;;;;;;;;;5075097;28;20082;-78
2023/04/07 09:04:32;;;;;;;54.03;12.88;;;;;;;;;;5058711;28;20037;-79
2023/04/07 09:06:58;;;;;;;77.03;19.03;;;;;;;;;;5052797;28;20033;-77
2023/04/07 09:09:24;;;;;;;83.68;20.90;;;;;;;;;;5078989;28;20565;-87
2023/04/07 09:11:50;;;;;;;53.57;15.00;;;;;;;;;;5052468;28;20041;-78
2023/04/07 09:14:17;;;;;;;51.92;15.88;;;;;;;;;;5070195;28;20279;-84
2023/04/07 09:16:42;;;;;;;56.67;14.77;;;;;;;;;;5071601;28;20060;-77
2023/04/07 09:19:07;;;;;;;58.27;15.13;;;;;;;;;;5071655;28;20036;-85
2023/04/07 09:21:51;;;;;;;42.80;13.27;;;;;;;;;;5075923;28;20033;-81
2023/04/07 09:24:20;;;;;;;45.05;13.77;;;;;;;;;;5077017;28;20044;-81
2023/04/07 09:26:45;;;;;;;50.42;13.48;;;;;;;;;;5062769;28;20041;-82
2023/04/07 09:29:10;;;;;;;41.43;12.67;;;;;;;;;;5055353;28;20093;-83
2023/04/07 09:31:46;;;;;;;35.47;11.57;;;;;;;;;;5086819;28;20043;-81
2023/04/07 09:34:23;;;;;;;39.30;11.25;;;;;;;;;;5074289;28;20020;-83
2023/04/07 09:36:48;;;;;;;37.35;11.15;;;;;;;;;;5073787;28;20029;-81
2023/04/07 09:39:14;;;;;;;35.60;10.70;;;;;;;;;;5062443;28;20097;-85
2023/04/07 09:41:40;;;;;;;42.28;11.32;;;;;;;;;;5074685;28;20064;-83
2023/04/07 09:44:05;;;;;;;31.55;9.27;;;;;;;;;;5078229;28;20476;-84
2023/04/07 09:46:31;;;;;;;36.90;10.13;;;;;;;;;;5071485;28;20051;-79
2023/04/07 09:49:01;;;;;;;31.20;9.95;;;;;;;;;;5068974;28;20028;-78
2023/04/07 09:51:26;;;;;;;30.90;9.25;;;;;;;;;;5049683;28;20036;-76
2023/04/07 09:53:52;;;;;;;28.00;9.03;;;;;;;;;;5072492;28;20503;-76
2023/04/07 09:56:23;;;;;;;26.27;8.52;;;;;;;;;;5067436;28;20336;-76
2023/04/07 09:58:50;;;;;;;28.55;8.98;;;;;;;;;;5071570;28;20055;-80
2023/04/07 10:01:16;;;;;;;25.17;8.77;;;;;;;;;;5070097;28;20041;-77
2023/04/07 10:03:41;;;;;;;26.80;8.18;;;;;;;;;;5071428;28;20044;-79
2023/04/07 10:06:06;;;;;;;22.42;8.43;;;;;;;;;;5068776;28;20037;-79
2023/04/07 10:08:33;;;;;;;24.48;8.38;;;;;;;;;;5070368;28;20044;-77
2023/04/07 10:11:00;;;;;;;23.30;8.25;;;;;;;;;;5053039;28;20275;-77
2023/04/07 10:13:26;;;;;;;22.50;7.85;;;;;;;;;;5073849;28;20563;-77
2023/04/07 10:15:51;;;;;;;23.55;8.02;;;;;;;;;;5066022;28;20032;-80
2023/04/07 10:18:17;;;;;;;18.47;6.73;;;;;;;;;;5056480;28;20028;-79
2023/04/07 10:20:42;;;;;;;19.35;7.72;;;;;;;;;;5069994;28;20150;-81
2023/04/07 10:23:34;;;;;;;24.77;8.35;;;;;;;;;;5057471;28;20091;-81
2023/04/07 10:25:59;;;;;;;18.88;6.90;;;;;;;;;;5056401;28;20045;-83
2023/04/07 10:28:25;;;;;;;20.70;6.63;;;;;;;;;;5073753;28;20103;-83
2023/04/07 10:30:50;;;;;;;24.85;7.60;;;;;;;;;;5060393;28;20538;-84
2023/04/07 10:33:17;;;;;;;19.30;7.25;;;;;;;;;;5058295;28;20100;-84
2023/04/07 10:36:01;;;;;;;11.02;5.75;;;;;;;;;;5072612;28;20486;-78
2023/04/07 10:38:26;;;;;;;12.55;5.47;;;;;;;;;;5059717;28;20056;-79
2023/04/07 10:40:52;;;;;;;14.53;5.77;;;;;;;;;;5062156;28;20045;-78
2023/04/07 10:43:35;;;;;;;18.30;6.20;;;;;;;;;;5055951;28;20376;-78
2023/04/07 10:46:00;;;;;;;15.48;5.88;;;;;;;;;;5070231;28;20844;-79
2023/04/07 10:48:27;;;;;;;13.27;5.47;;;;;;;;;;5077280;28;20021;-78
2023/04/07 10:51:05;;;;;;;14.27;5.65;;;;;;;;;;5071917;28;20032;-79
2023/04/07 10:53:30;;;;;;;13.10;5.13;;;;;;;;;;5061073;28;20109;-78
2023/04/07 10:55:55;;;;;;;16.52;5.88;;;;;;;;;;5071525;28;20037;-80
2023/04/07 10:58:21;;;;;;;12.68;5.68;;;;;;;;;;5059033;28;20060;-78
2023/04/07 11:01:11;;;;;;;15.30;5.68;;;;;;;;;;5070387;28;21015;-78
2023/04/07 11:03:55;;;;;;;18.50;5.47;;;;;;;;;;5052355;28;20047;-78
2023/04/07 11:06:21;;;;;;;14.38;5.00;;;;;;;;;;5071780;28;20044;-78
2023/04/07 11:08:47;;;;;;;10.25;4.50;;;;;;;;;;5071029;28;20078;-78
2023/04/07 11:11:16;;;;;;;11.82;5.00;;;;;;;;;;5069196;28;20130;-81
2023/04/07 11:13:41;;;;;;;11.00;4.95;;;;;;;;;;5063007;28;20056;-83
2023/04/07 11:16:07;;;;;;;12.98;4.85;;;;;;;;;;5055859;28;20044;-78
2023/04/07 11:18:32;;;;;;;12.65;5.15;;;;;;;;;;5064387;28;20434;-80
2023/04/07 11:20:58;;;;;;;13.40;5.30;;;;;;;;;;5059896;28;20041;-84
2023/04/07 11:23:24;;;;;;;15.77;5.28;;;;;;;;;;5061029;28;20367;-78
2023/04/07 11:25:50;;;;;;;11.35;4.55;;;;;;;;;;5075884;28;20037;-76
2023/04/07 11:28:18;;;;;;;10.02;4.70;;;;;;;;;;5074756;28;20032;-77
2023/04/07 11:30:48;;;;;;;10.30;4.90;;;;;;;;;;5055847;28;20132;-76
2023/04/07 11:33:14;;;;;;;10.10;4.60;;;;;;;;;;5072516;28;20574;-76
2023/04/07 11:35:46;;;;;;;11.20;4.95;;;;;;;;;;5042942;28;20052;-75
2023/04/07 11:38:11;;;;;;;9.25;4.75;;;;;;;;;;5069612;28;20150;-78
2023/04/07 11:40:37;;;;;;;9.93;4.70;;;;;;;;;;5059382;28;20139;-76
2023/04/07 11:43:14;;;;;;;10.20;4.57;;;;;;;;;;5078106;28;20040;-76
2023/04/07 11:45:39;;;;;;;10.93;4.88;;;;;;;;;;5053041;28;20506;-77
2023/04/07 11:48:05;;;;;;;9.65;4.10;;;;;;;;;;5055489;28;20025;-76
2023/04/07 11:50:36;;;;;;;9.40;4.57;;;;;;;;;;5056312;28;20062;-77
2023/04/07 11:53:02;;;;;;;7.78;3.97;;;;;;;;;;5071960;28;20049;-78
2023/04/07 11:55:28;;;;;;;10.00;3.80;;;;;;;;;;5076573;28;20036;-77
2023/04/07 11:57:53;;;;;;;10.13;4.30;;;;;;;;;;5075052;28;20032;-77
2023/04/07 12:00:19;;;;;;;8.77;4.27;;;;;;;;;;5065662;28;20057;-77
2023/04/07 12:02:44;;;;;;;8.55;3.85;;;;;;;;;;5074952;28;20282;-76
2023/04/07 12:05:09;;;;;;;8.53;3.70;;;;;;;;;;5072046;28;20575;-76
2023/04/07 12:07:35;;;;;;;8.43;3.88;;;;;;;;;;5064092;28;20669;-77
2023/04/07 12:10:19;;;;;;;10.13;3.80;;;;;;;;;;5053799;28;20043;-77
2023/04/07 12:12:45;;;;;;;7.53;3.88;;;;;;;;;;5068005;28;20566;-76
2023/04/07 12:15:10;;;;;;;7.65;3.40;;;;;;;;;;5070188;28;20045;-77
2023/04/07 12:17:35;;;;;;;9.05;3.95;;;;;;;;;;5075278;28;20047;-76
2023/04/07 12:20:01;;;;;;;8.53;3.80;;;;;;;;;;5062150;28;20531;-77
2023/04/07 12:22:27;;;;;;;7.88;4.15;;;;;;;;;;5065797;28;20310;-77
2023/04/07 12:24:52;;;;;;;7.15;3.35;;;;;;;;;;5063873;28;20377;-77
2023/04/07 12:27:17;;;;;;;7.25;3.67;;;;;;;;;;5066459;28;20112;-77
2023/04/07 12:29:42;;;;;;;7.80;3.80;;;;;;;;;;5064513;28;20036;-76
2023/04/07 12:32:08;;;;;;;5.77;3.23;;;;;;;;;;5069312;28;20311;-76
2023/04/07 12:34:36;;;;;;;7.43;3.73;;;;;;;;;;5072010;28;20722;-76
2023/04/07 12:37:01;;;;;;;8.07;3.75;;;;;;;;;;5049392;28;20283;-76
2023/04/07 12:39:27;;;;;;;7.55;3.78;;;;;;;;;;5067660;28;20120;-78
2023/04/07 12:41:52;;;;;;;7.07;3.92;;;;;;;;;;5073755;28;20132;-76
2023/04/07 12:44:17;;;;;;;6.72;3.53;;;;;;;;;;5055660;28;20492;-76
2023/04/07 12:46:43;;;;;;;7.20;3.50;;;;;;;;;;5065953;28;20171;-77
2023/04/07 12:49:08;;;;;;;6.67;3.33;;;;;;;;;;5075367;28;20086;-78
2023/04/07 12:51:33;;;;;;;6.47;3.57;;;;;;;;;;5070329;28;20030;-76
2023/04/07 12:54:02;;;;;;;6.72;3.72;;;;;;;;;;5073010;28;20092;-76
2023/04/07 12:56:27;;;;;;;4.93;3.15;;;;;;;;;;5063083;28;20057;-76
2023/04/07 12:58:53;;;;;;;5.50;3.03;;;;;;;;;;5072067;28;20024;-77
2023/04/07 13:01:19;;;;;;;6.03;3.35;;;;;;;;;;5060683;28;20123;-77
2023/04/07 13:03:44;;;;;;;6.47;3.55;;;;;;;;;;5072096;28;20121;-78
2023/04/07 13:06:10;;;;;;;5.22;3.10;;;;;;;;;;5067415;28;20056;-77
2023/04/07 13:08:35;;;;;;;5.85;3.05;;;;;;;;;;5066104;28;20040;-78
2023/04/07 13:11:01;;;;;;;5.73;3.33;;;;;;;;;;5055172;28;20032;-76
2023/04/07 13:13:26;;;;;;;6.15;3.13;;;;;;;;;;5070532;28;20032;-77
2023/04/07 13:15:51;;;;;;;7.18;3.30;;;;;;;;;;5061743;28;20035;-76
2023/04/07 13:18:17;;;;;;;6.10;3.03;;;;;;;;;;5050180;28;20518;-76
2023/04/07 13:20:42;;;;;;;6.63;3.70;;;;;;;;;;5069420;28;20025;-77
2023/04/07 13:23:07;;;;;;;5.23;3.13;;;;;;;;;;5069109;28;20289;-77
2023/04/07 13:25:32;;;;;;;4.50;2.90;;;;;;;;;;5071016;28;20354;-76
2023/04/07 13:27:58;;;;;;;4.57;2.77;;;;;;;;;;5065384;28;20482;-77
2023/04/07 13:30:24;;;;;;;6.18;2.97;;;;;;;;;;5045657;28;20275;-78
2023/04/07 13:32:49;;;;;;;6.40;3.38;;;;;;;;;;5069290;28;20044;-77
2023/04/07 13:35:15;;;;;;;4.07;2.70;;;;;;;;;;5040680;28;20099;-78
2023/04/07 13:37:41;;;;;;;4.80;2.88;;;;;;;;;;5069201;28;20021;-78
2023/04/07 13:40:06;;;;;;;4.55;2.55;;;;;;;;;;5052901;28;20047;-78
2023/04/07 13:42:31;;;;;;;4.25;2.50;;;;;;;;;;5070308;28;20052;-78
2023/04/07 13:44:56;;;;;;;4.80;3.10;;;;;;;;;;5069271;28;20608;-78
2023/04/07 13:47:23;;;;;;;4.03;3.07;;;;;;;;;;5046207;28;20485;-78
2023/04/07 13:49:50;;;;;;;4.40;3.00;;;;;;;;;;5033992;28;20021;-78
2023/04/07 13:52:16;;;;;;;4.60;2.80;;;;;;;;;;5064693;28;20037;-78
2023/04/07 13:54:42;;;;;;;4.90;2.90;;;;;;;;;;5051079;28;20043;-77
2023/04/07 13:57:07;;;;;;;6.07;3.10;;;;;;;;;;5063911;28;20040;-76
2023/04/07 13:59:32;;;;;;;5.43;3.07;;;;;;;;;;5069492;28;20117;-80
2023/04/07 14:01:57;;;;;;;5.17;3.00;;;;;;;;;;5068184;28;20278;-77
2023/04/07 14:04:23;;;;;;;5.53;2.70;;;;;;;;;;5046693;28;20297;-79
2023/04/07 14:06:48;;;;;;;6.18;3.22;;;;;;;;;;5072900;28;20039;-80
2023/04/07 14:09:13;;;;;;;3.43;2.23;;;;;;;;;;5064624;28;20028;-77
2023/04/07 14:11:39;;;;;;;5.30;2.67;;;;;;;;;;5069122;28;20301;-79
2023/04/07 14:14:05;;;;;;;4.20;3.10;;;;;;;;;;5072991;28;20106;-78
2023/04/07 14:16:30;;;;;;;4.72;2.83;;;;;;;;;;5069156;28;20037;-77
2023/04/07 14:18:56;;;;;;;4.57;2.67;;;;;;;;;;5070855;28;20036;-76
2023/04/07 14:21:21;;;;;;;4.65;2.90;;;;;;;;;;5072027;28;20097;-77
2023/04/07 14:23:46;;;;;;;3.95;2.50;;;;;;;;;;5070539;28;20067;-76
2023/04/07 14:26:11;;;;;;;7.57;2.80;;;;;;;;;;5067290;28;20537;-79
2023/04/07 14:28:37;;;;;;;5.72;2.90;;;;;;;;;;5070597;28;20485;-81
2023/04/07 14:31:02;;;;;;;4.70;2.73;;;;;;;;;;5069936;28;20071;-79
2023/04/07 14:33:27;;;;;;;5.53;2.70;;;;;;;;;;5054900;28;20309;-79
2023/04/07 14:35:53;;;;;;;3.97;2.40;;;;;;;;;;5070591;28;20326;-78